sensor_id;sensor_type;location;lat;lon;timestamp;temperature;humidity
3156;DHT22;1588;50.892;7.082;2023-05-07T00:02:16;13.40;99.90
3156;DHT22;1588;50.892;7.082;2023-05-07T00:07:19;13.40;99.90
3156;DHT22;1588;50.892;7.082;2023-05-07T00:12:21;13.40;99.90
3156;DHT22;1588;50.892;7.082;2023-05-07T00:17:25;13.40;99.90
3156;DHT22;1588;50.892;7.082;2023-05-07T00:22:28;13.40;99.90
3156;DHT22;1588;50.892;7.082;2023-05-07T00:27:31;13.40;99.90
3156;DHT22;1588;50.892;7.082;2023-05-07T00:32:35;13.40;99.90
3156;DHT22;1588;50.892;7.082;2023-05-07T00:37:38;13.40;99.90
3156;DHT22;1588;50.892;7.082;2023-05-07T00:42:43;13.40;99.90
3156;DHT22;1588;50.892;7.082;2023-05-07T00:47:50;13.40;99.90
3156;DHT22;1588;50.892;7.082;2023-05-07T00:52:53;13.40;99.90
3156;DHT22;1588;50.892;7.082;2023-05-07T00:57:57;13.40;99.90
3156;DHT22;1588;50.892;7.082;2023-05-07T01:03:00;13.40;99.90
3156;DHT22;1588;50.892;7.082;2023-05-07T01:08:04;13.40;99.90
3156;DHT22;1588;50.892;7.082;2023-05-07T01:13:07;13.40;99.90
3156;DHT22;1588;50.892;7.082;2023-05-07T01:18:11;13.40;99.90
3156;DHT22;1588;50.892;7.082;2023-05-07T01:23:15;13.40;99.90
3156;DHT22;1588;50.892;7.082;2023-05-07T01:28:18;13.40;99.90
3156;DHT22;1588;50.892;7.082;2023-05-07T01:33:21;13.30;99.90
3156;DHT22;1588;50.892;7.082;2023-05-07T01:38:27;13.40;99.90
3156;DHT22;1588;50.892;7.082;2023-05-07T01:43:30;13.40;99.90
3156;DHT22;1588;50.892;7.082;2023-05-07T01:48:33;13.40;99.90
3156;DHT22;1588;50.892;7.082;2023-05-07T01:53:37;13.50;99.90
3156;DHT22;1588;50.892;7.082;2023-05-07T01:58:41;13.50;99.90
3156;DHT22;1588;50.892;7.082;2023-05-07T02:03:51;13.50;99.90
3156;DHT22;1588;50.892;7.082;2023-05-07T02:08:56;13.50;99.90
3156;DHT22;1588;50.892;7.082;2023-05-07T02:13:58;13.50;99.90
3156;DHT22;1588;50.892;7.082;2023-05-07T02:19:04;13.50;99.90
3156;DHT22;1588;50.892;7.082;2023-05-07T02:24:08;13.40;99.90
3156;DHT22;1588;50.892;7.082;2023-05-07T02:29:14;13.30;99.90
3156;DHT22;1588;50.892;7.082;2023-05-07T02:34:17;13.40;99.90
3156;DHT22;1588;50.892;7.082;2023-05-07T02:39:20;13.40;99.90
3156;DHT22;1588;50.892;7.082;2023-05-07T02:44:23;13.30;99.90
3156;DHT22;1588;50.892;7.082;2023-05-07T02:49:25;13.20;99.90
3156;DHT22;1588;50.892;7.082;2023-05-07T02:54:29;13.20;99.90
3156;DHT22;1588;50.892;7.082;2023-05-07T02:59:32;13.20;99.90
3156;DHT22;1588;50.892;7.082;2023-05-07T03:04:35;13.20;99.90
3156;DHT22;1588;50.892;7.082;2023-05-07T03:09:39;13.20;99.90
3156;DHT22;1588;50.892;7.082;2023-05-07T03:14:41;13.20;99.90
3156;DHT22;1588;50.892;7.082;2023-05-07T03:19:44;13.20;99.90
3156;DHT22;1588;50.892;7.082;2023-05-07T03:24:48;13.20;99.90
3156;DHT22;1588;50.892;7.082;2023-05-07T03:29:51;13.20;99.90
3156;DHT22;1588;50.892;7.082;2023-05-07T03:34:54;13.20;99.90
3156;DHT22;1588;50.892;7.082;2023-05-07T03:39:58;13.10;99.90
3156;DHT22;1588;50.892;7.082;2023-05-07T03:45:01;13.10;99.90
3156;DHT22;1588;50.892;7.082;2023-05-07T03:50:04;13.10;99.90
3156;DHT22;1588;50.892;7.082;2023-05-07T03:55:09;13.00;99.90
3156;DHT22;1588;50.892;7.082;2023-05-07T04:00:14;13.00;99.90
3156;DHT22;1588;50.892;7.082;2023-05-07T04:05:17;13.10;99.90
3156;DHT22;1588;50.892;7.082;2023-05-07T04:10:21;13.10;99.90
3156;DHT22;1588;50.892;7.082;2023-05-07T04:15:23;13.10;99.90
3156;DHT22;1588;50.892;7.082;2023-05-07T04:20:30;13.10;99.90
3156;DHT22;1588;50.892;7.082;2023-05-07T04:25:34;13.20;99.90
3156;DHT22;1588;50.892;7.082;2023-05-07T04:30:36;13.20;99.90
3156;DHT22;1588;50.892;7.082;2023-05-07T04:35:39;13.20;99.90
3156;DHT22;1588;50.892;7.082;2023-05-07T04:40:43;13.30;99.90
3156;DHT22;1588;50.892;7.082;2023-05-07T04:45:49;13.30;99.90
3156;DHT22;1588;50.892;7.082;2023-05-07T04:50:55;13.30;99.90
3156;DHT22;1588;50.892;7.082;2023-05-07T04:55:59;13.40;99.90
3156;DHT22;1588;50.892;7.082;2023-05-07T05:01:01;13.50;99.90
3156;DHT22;1588;50.892;7.082;2023-05-07T05:06:04;13.60;99.90
3156;DHT22;1588;50.892;7.082;2023-05-07T05:11:08;13.70;99.90
3156;DHT22;1588;50.892;7.082;2023-05-07T05:16:10;13.80;99.90
3156;DHT22;1588;50.892;7.082;2023-05-07T05:21:13;13.90;99.90
3156;DHT22;1588;50.892;7.082;2023-05-07T05:26:17;14.00;99.90
3156;DHT22;1588;50.892;7.082;2023-05-07T05:31:20;14.20;99.90
3156;DHT22;1588;50.892;7.082;2023-05-07T05:36:25;14.30;99.90
3156;DHT22;1588;50.892;7.082;2023-05-07T05:41:30;14.50;99.90
3156;DHT22;1588;50.892;7.082;2023-05-07T05:46:35;14.60;99.90
3156;DHT22;1588;50.892;7.082;2023-05-07T05:51:37;14.80;99.90
3156;DHT22;1588;50.892;7.082;2023-05-07T05:56:42;14.90;99.90
3156;DHT22;1588;50.892;7.082;2023-05-07T06:01:48;14.90;99.90
3156;DHT22;1588;50.892;7.082;2023-05-07T06:06:53;15.00;99.90
3156;DHT22;1588;50.892;7.082;2023-05-07T06:11:58;15.10;99.90
3156;DHT22;1588;50.892;7.082;2023-05-07T06:17:03;15.10;99.90
3156;DHT22;1588;50.892;7.082;2023-05-07T06:22:06;15.20;99.90
3156;DHT22;1588;50.892;7.082;2023-05-07T06:27:10;15.30;99.90
3156;DHT22;1588;50.892;7.082;2023-05-07T06:32:13;15.40;99.90
3156;DHT22;1588;50.892;7.082;2023-05-07T06:37:15;15.50;99.90
3156;DHT22;1588;50.892;7.082;2023-05-07T06:42:19;15.90;99.90
3156;DHT22;1588;50.892;7.082;2023-05-07T06:47:22;16.00;99.90
3156;DHT22;1588;50.892;7.082;2023-05-07T06:52:25;16.20;99.90
3156;DHT22;1588;50.892;7.082;2023-05-07T06:57:32;16.20;99.90
3156;DHT22;1588;50.892;7.082;2023-05-07T07:02:35;16.40;99.90
3156;DHT22;1588;50.892;7.082;2023-05-07T07:07:37;16.50;99.90
3156;DHT22;1588;50.892;7.082;2023-05-07T07:12:42;16.70;99.90
3156;DHT22;1588;50.892;7.082;2023-05-07T07:17:45;17.10;99.90
3156;DHT22;1588;50.892;7.082;2023-05-07T07:22:47;17.50;99.90
3156;DHT22;1588;50.892;7.082;2023-05-07T07:27:51;17.80;99.90
3156;DHT22;1588;50.892;7.082;2023-05-07T07:32:53;17.80;99.90
3156;DHT22;1588;50.892;7.082;2023-05-07T07:38:01;17.80;99.90
3156;DHT22;1588;50.892;7.082;2023-05-07T07:43:05;17.80;99.90
3156;DHT22;1588;50.892;7.082;2023-05-07T07:48:07;18.30;99.90
3156;DHT22;1588;50.892;7.082;2023-05-07T07:53:09;18.60;99.90
3156;DHT22;1588;50.892;7.082;2023-05-07T07:58:13;19.50;99.90
3156;DHT22;1588;50.892;7.082;2023-05-07T08:03:24;20.20;99.90
3156;DHT22;1588;50.892;7.082;2023-05-07T08:08:27;20.90;99.90
3156;DHT22;1588;50.892;7.082;2023-05-07T08:13:31;20.60;99.90
3156;DHT22;1588;50.892;7.082;2023-05-07T08:18:34;20.40;99.90
3156;DHT22;1588;50.892;7.082;2023-05-07T08:23:36;20.50;99.90
3156;DHT22;1588;50.892;7.082;2023-05-07T08:28:40;20.20;99.90
3156;DHT22;1588;50.892;7.082;2023-05-07T08:33:42;20.40;99.90
3156;DHT22;1588;50.892;7.082;2023-05-07T08:38:45;20.50;99.90
3156;DHT22;1588;50.892;7.082;2023-05-07T08:43:50;20.50;99.90
3156;DHT22;1588;50.892;7.082;2023-05-07T08:48:56;20.40;99.90
3156;DHT22;1588;50.892;7.082;2023-05-07T08:54:02;20.20;99.90
3156;DHT22;1588;50.892;7.082;2023-05-07T08:59:06;20.00;99.90
3156;DHT22;1588;50.892;7.082;2023-05-07T09:04:10;20.10;99.90
3156;DHT22;1588;50.892;7.082;2023-05-07T09:09:14;20.50;99.90
3156;DHT22;1588;50.892;7.082;2023-05-07T09:14:21;21.40;99.90
3156;DHT22;1588;50.892;7.082;2023-05-07T09:19:25;21.90;99.90
3156;DHT22;1588;50.892;7.082;2023-05-07T09:24:28;22.60;99.90
3156;DHT22;1588;50.892;7.082;2023-05-07T09:29:36;22.70;99.90
3156;DHT22;1588;50.892;7.082;2023-05-07T09:34:38;22.60;99.90
3156;DHT22;1588;50.892;7.082;2023-05-07T09:39:42;22.50;99.90
3156;DHT22;1588;50.892;7.082;2023-05-07T09:44:47;22.40;99.90
3156;DHT22;1588;50.892;7.082;2023-05-07T09:49:50;23.20;99.90
3156;DHT22;1588;50.892;7.082;2023-05-07T09:54:57;23.50;99.90
3156;DHT22;1588;50.892;7.082;2023-05-07T10:00:10;24.10;99.90
3156;DHT22;1588;50.892;7.082;2023-05-07T10:05:14;24.20;99.90
3156;DHT22;1588;50.892;7.082;2023-05-07T10:10:17;24.60;99.90
3156;DHT22;1588;50.892;7.082;2023-05-07T10:15:21;23.40;99.90
3156;DHT22;1588;50.892;7.082;2023-05-07T10:20:26;23.30;99.90
3156;DHT22;1588;50.892;7.082;2023-05-07T10:25:30;22.90;99.90
3156;DHT22;1588;50.892;7.082;2023-05-07T10:30:41;22.70;99.90
3156;DHT22;1588;50.892;7.082;2023-05-07T10:35:50;22.90;99.90
3156;DHT22;1588;50.892;7.082;2023-05-07T10:40:53;23.30;99.90
3156;DHT22;1588;50.892;7.082;2023-05-07T10:46:13;23.20;99.90
3156;DHT22;1588;50.892;7.082;2023-05-07T10:51:19;24.00;99.90
3156;DHT22;1588;50.892;7.082;2023-05-07T10:56:26;24.90;99.90
3156;DHT22;1588;50.892;7.082;2023-05-07T11:01:53;24.60;99.90
3156;DHT22;1588;50.892;7.082;2023-05-07T11:07:24;24.20;99.90
3156;DHT22;1588;50.892;7.082;2023-05-07T11:18:06;24.70;99.90
3156;DHT22;1588;50.892;7.082;2023-05-07T11:28:52;25.50;99.90
3156;DHT22;1588;50.892;7.082;2023-05-07T11:33:57;25.80;99.90
3156;DHT22;1588;50.892;7.082;2023-05-07T11:39:00;25.40;99.90
3156;DHT22;1588;50.892;7.082;2023-05-07T11:44:02;25.80;99.90
3156;DHT22;1588;50.892;7.082;2023-05-07T11:49:06;25.70;99.90
3156;DHT22;1588;50.892;7.082;2023-05-07T11:54:08;26.40;99.90
3156;DHT22;1588;50.892;7.082;2023-05-07T11:59:12;25.70;99.90
3156;DHT22;1588;50.892;7.082;2023-05-07T12:04:22;25.60;99.90
3156;DHT22;1588;50.892;7.082;2023-05-07T12:09:25;25.50;99.90
3156;DHT22;1588;50.892;7.082;2023-05-07T12:14:28;25.20;99.90
3156;DHT22;1588;50.892;7.082;2023-05-07T12:19:33;24.80;99.90
3156;DHT22;1588;50.892;7.082;2023-05-07T12:24:44;24.90;99.90
3156;DHT22;1588;50.892;7.082;2023-05-07T12:29:48;24.90;99.90
3156;DHT22;1588;50.892;7.082;2023-05-07T12:34:51;24.50;99.90
3156;DHT22;1588;50.892;7.082;2023-05-07T12:40:04;24.20;99.90
3156;DHT22;1588;50.892;7.082;2023-05-07T12:45:10;23.80;99.90
3156;DHT22;1588;50.892;7.082;2023-05-07T12:50:14;23.50;99.90
3156;DHT22;1588;50.892;7.082;2023-05-07T12:55:17;23.60;99.90
3156;DHT22;1588;50.892;7.082;2023-05-07T13:00:32;23.50;99.90
3156;DHT22;1588;50.892;7.082;2023-05-07T13:05:36;23.60;99.90
3156;DHT22;1588;50.892;7.082;2023-05-07T13:10:39;23.70;99.90
3156;DHT22;1588;50.892;7.082;2023-05-07T13:15:41;23.60;99.90
3156;DHT22;1588;50.892;7.082;2023-05-07T13:20:45;23.60;99.90
3156;DHT22;1588;50.892;7.082;2023-05-07T13:25:47;23.70;99.90
3156;DHT22;1588;50.892;7.082;2023-05-07T13:30:50;23.60;99.90
3156;DHT22;1588;50.892;7.082;2023-05-07T13:35:54;23.40;99.90
3156;DHT22;1588;50.892;7.082;2023-05-07T13:40:57;23.10;99.90
3156;DHT22;1588;50.892;7.082;2023-05-07T13:46:00;23.10;99.90
3156;DHT22;1588;50.892;7.082;2023-05-07T13:51:04;23.20;99.90
3156;DHT22;1588;50.892;7.082;2023-05-07T13:56:09;23.10;99.90
3156;DHT22;1588;50.892;7.082;2023-05-07T14:01:13;22.90;99.90
3156;DHT22;1588;50.892;7.082;2023-05-07T14:06:17;22.70;99.90
3156;DHT22;1588;50.892;7.082;2023-05-07T14:11:22;22.70;99.90
3156;DHT22;1588;50.892;7.082;2023-05-07T14:16:24;22.00;99.90
3156;DHT22;1588;50.892;7.082;2023-05-07T14:21:28;21.60;99.90
3156;DHT22;1588;50.892;7.082;2023-05-07T14:26:32;21.60;99.90
3156;DHT22;1588;50.892;7.082;2023-05-07T14:31:34;21.70;99.90
3156;DHT22;1588;50.892;7.082;2023-05-07T14:36:38;21.80;99.90
3156;DHT22;1588;50.892;7.082;2023-05-07T14:41:40;21.90;99.90
3156;DHT22;1588;50.892;7.082;2023-05-07T14:46:42;21.80;99.90
3156;DHT22;1588;50.892;7.082;2023-05-07T14:51:47;21.60;99.90
3156;DHT22;1588;50.892;7.082;2023-05-07T14:56:50;21.40;99.90
3156;DHT22;1588;50.892;7.082;2023-05-07T15:01:53;21.30;99.90
3156;DHT22;1588;50.892;7.082;2023-05-07T15:06:57;21.00;99.90
3156;DHT22;1588;50.892;7.082;2023-05-07T15:11:59;20.80;99.90
3156;DHT22;1588;50.892;7.082;2023-05-07T15:17:03;20.60;99.90
3156;DHT22;1588;50.892;7.082;2023-05-07T15:22:06;20.50;99.90
3156;DHT22;1588;50.892;7.082;2023-05-07T15:27:15;20.40;99.90
3156;DHT22;1588;50.892;7.082;2023-05-07T15:32:18;20.50;99.90
3156;DHT22;1588;50.892;7.082;2023-05-07T15:37:21;20.50;99.90
3156;DHT22;1588;50.892;7.082;2023-05-07T15:42:24;20.00;99.90
3156;DHT22;1588;50.892;7.082;2023-05-07T15:47:26;19.90;99.90
3156;DHT22;1588;50.892;7.082;2023-05-07T15:52:30;20.20;99.90
3156;DHT22;1588;50.892;7.082;2023-05-07T15:57:34;20.00;99.90
3156;DHT22;1588;50.892;7.082;2023-05-07T16:02:36;20.10;99.90
3156;DHT22;1588;50.892;7.082;2023-05-07T16:07:42;20.20;99.90
3156;DHT22;1588;50.892;7.082;2023-05-07T16:12:46;20.20;99.90
3156;DHT22;1588;50.892;7.082;2023-05-07T16:17:48;20.20;99.90
3156;DHT22;1588;50.892;7.082;2023-05-07T16:22:53;20.10;99.90
3156;DHT22;1588;50.892;7.082;2023-05-07T16:27:55;20.20;99.90
3156;DHT22;1588;50.892;7.082;2023-05-07T16:33:00;20.30;99.90
3156;DHT22;1588;50.892;7.082;2023-05-07T16:38:04;20.30;99.90
3156;DHT22;1588;50.892;7.082;2023-05-07T16:43:10;20.30;99.90
3156;DHT22;1588;50.892;7.082;2023-05-07T16:48:12;20.40;99.90
3156;DHT22;1588;50.892;7.082;2023-05-07T16:53:16;20.50;99.90
3156;DHT22;1588;50.892;7.082;2023-05-07T16:58:18;20.40;99.90
3156;DHT22;1588;50.892;7.082;2023-05-07T17:03:20;20.20;99.90
3156;DHT22;1588;50.892;7.082;2023-05-07T17:08:25;20.10;99.90
3156;DHT22;1588;50.892;7.082;2023-05-07T17:13:27;20.00;99.90
3156;DHT22;1588;50.892;7.082;2023-05-07T17:18:32;19.90;99.90
3156;DHT22;1588;50.892;7.082;2023-05-07T17:23:36;19.80;99.90
3156;DHT22;1588;50.892;7.082;2023-05-07T17:28:41;19.80;99.90
3156;DHT22;1588;50.892;7.082;2023-05-07T17:33:44;19.70;99.90
3156;DHT22;1588;50.892;7.082;2023-05-07T17:38:47;19.60;99.90
3156;DHT22;1588;50.892;7.082;2023-05-07T17:43:49;19.60;99.90
3156;DHT22;1588;50.892;7.082;2023-05-07T17:49:00;19.30;99.90
3156;DHT22;1588;50.892;7.082;2023-05-07T17:54:04;19.10;99.90
3156;DHT22;1588;50.892;7.082;2023-05-07T17:59:06;19.00;99.90
3156;DHT22;1588;50.892;7.082;2023-05-07T18:04:09;18.80;99.90
3156;DHT22;1588;50.892;7.082;2023-05-07T18:09:17;18.70;99.90
3156;DHT22;1588;50.892;7.082;2023-05-07T18:14:22;18.60;99.90
3156;DHT22;1588;50.892;7.082;2023-05-07T18:19:26;18.50;99.90
3156;DHT22;1588;50.892;7.082;2023-05-07T18:24:30;18.40;99.90
3156;DHT22;1588;50.892;7.082;2023-05-07T18:29:32;18.30;99.90
3156;DHT22;1588;50.892;7.082;2023-05-07T18:34:41;18.30;99.90
3156;DHT22;1588;50.892;7.082;2023-05-07T18:39:46;18.10;99.90
3156;DHT22;1588;50.892;7.082;2023-05-07T18:44:49;18.00;99.90
3156;DHT22;1588;50.892;7.082;2023-05-07T18:49:51;17.90;99.90
3156;DHT22;1588;50.892;7.082;2023-05-07T18:54:58;17.80;99.90
3156;DHT22;1588;50.892;7.082;2023-05-07T19:00:04;17.70;99.90
3156;DHT22;1588;50.892;7.082;2023-05-07T19:05:09;17.60;99.90
3156;DHT22;1588;50.892;7.082;2023-05-07T19:10:14;17.50;99.90
3156;DHT22;1588;50.892;7.082;2023-05-07T19:15:17;17.30;99.90
3156;DHT22;1588;50.892;7.082;2023-05-07T19:20:20;17.20;99.90
3156;DHT22;1588;50.892;7.082;2023-05-07T19:25:26;17.00;99.90
3156;DHT22;1588;50.892;7.082;2023-05-07T19:30:28;17.10;99.90
3156;DHT22;1588;50.892;7.082;2023-05-07T19:35:31;17.00;99.90
3156;DHT22;1588;50.892;7.082;2023-05-07T19:40:39;17.00;99.90
3156;DHT22;1588;50.892;7.082;2023-05-07T19:45:42;16.90;99.90
3156;DHT22;1588;50.892;7.082;2023-05-07T19:50:47;16.90;99.90
3156;DHT22;1588;50.892;7.082;2023-05-07T19:56:01;16.80;99.90
3156;DHT22;1588;50.892;7.082;2023-05-07T20:01:04;16.70;99.90
3156;DHT22;1588;50.892;7.082;2023-05-07T20:06:09;16.70;99.90
3156;DHT22;1588;50.892;7.082;2023-05-07T20:11:13;16.70;99.90
3156;DHT22;1588;50.892;7.082;2023-05-07T20:16:16;16.70;99.90
3156;DHT22;1588;50.892;7.082;2023-05-07T20:21:18;16.60;99.90
3156;DHT22;1588;50.892;7.082;2023-05-07T20:26:22;16.50;99.90
3156;DHT22;1588;50.892;7.082;2023-05-07T20:31:24;16.50;99.90
3156;DHT22;1588;50.892;7.082;2023-05-07T20:36:28;16.40;99.90
3156;DHT22;1588;50.892;7.082;2023-05-07T20:41:32;16.40;99.90
3156;DHT22;1588;50.892;7.082;2023-05-07T20:46:35;16.40;99.90
3156;DHT22;1588;50.892;7.082;2023-05-07T20:51:38;16.40;99.90
3156;DHT22;1588;50.892;7.082;2023-05-07T20:56:42;16.20;99.90
3156;DHT22;1588;50.892;7.082;2023-05-07T21:01:44;16.10;99.90
3156;DHT22;1588;50.892;7.082;2023-05-07T21:06:49;16.10;99.90
3156;DHT22;1588;50.892;7.082;2023-05-07T21:11:53;16.10;99.90
3156;DHT22;1588;50.892;7.082;2023-05-07T21:16:55;16.10;99.90
3156;DHT22;1588;50.892;7.082;2023-05-07T21:22:00;16.00;99.90
3156;DHT22;1588;50.892;7.082;2023-05-07T21:27:08;15.90;99.90
3156;DHT22;1588;50.892;7.082;2023-05-07T21:32:11;15.80;99.90
3156;DHT22;1588;50.892;7.082;2023-05-07T21:37:13;15.80;99.90
3156;DHT22;1588;50.892;7.082;2023-05-07T21:42:18;15.80;99.90
3156;DHT22;1588;50.892;7.082;2023-05-07T21:47:23;15.70;99.90
3156;DHT22;1588;50.892;7.082;2023-05-07T21:52:28;15.60;99.90
3156;DHT22;1588;50.892;7.082;2023-05-07T21:57:32;15.60;99.90
3156;DHT22;1588;50.892;7.082;2023-05-07T22:02:36;15.60;99.90
3156;DHT22;1588;50.892;7.082;2023-05-07T22:07:38;15.60;99.90
3156;DHT22;1588;50.892;7.082;2023-05-07T22:12:44;15.60;99.90
3156;DHT22;1588;50.892;7.082;2023-05-07T22:17:48;15.50;99.90
3156;DHT22;1588;50.892;7.082;2023-05-07T22:22:52;15.50;99.90
3156;DHT22;1588;50.892;7.082;2023-05-07T22:27:56;15.50;99.90
3156;DHT22;1588;50.892;7.082;2023-05-07T22:32:58;15.50;99.90
3156;DHT22;1588;50.892;7.082;2023-05-07T22:38:01;15.40;99.90
3156;DHT22;1588;50.892;7.082;2023-05-07T22:43:05;15.40;99.90
3156;DHT22;1588;50.892;7.082;2023-05-07T22:48:08;15.40;99.90
3156;DHT22;1588;50.892;7.082;2023-05-07T22:53:13;15.40;99.90
3156;DHT22;1588;50.892;7.082;2023-05-07T22:58:19;15.40;99.90
3156;DHT22;1588;50.892;7.082;2023-05-07T23:03:23;15.30;99.90
3156;DHT22;1588;50.892;7.082;2023-05-07T23:08:25;15.30;99.90
3156;DHT22;1588;50.892;7.082;2023-05-07T23:13:30;15.30;99.90
3156;DHT22;1588;50.892;7.082;2023-05-07T23:18:32;15.20;99.90
3156;DHT22;1588;50.892;7.082;2023-05-07T23:23:34;15.20;99.90
3156;DHT22;1588;50.892;7.082;2023-05-07T23:28:38;15.10;99.90
3156;DHT22;1588;50.892;7.082;2023-05-07T23:33:41;15.20;99.90
3156;DHT22;1588;50.892;7.082;2023-05-07T23:38:43;15.10;99.90
3156;DHT22;1588;50.892;7.082;2023-05-07T23:43:47;15.10;99.90
3156;DHT22;1588;50.892;7.082;2023-05-07T23:48:49;15.10;99.90
3156;DHT22;1588;50.892;7.082;2023-05-07T23:53:51;15.00;99.90
3156;DHT22;1588;50.892;7.082;2023-05-07T23:58:55;15.00;99.90
